sensor_id;sensor_type;location;lat;lon;timestamp;temperature;humidity
12853;DHT22;6495;51.808;7.478;2024-01-15T00:01:42;2.00;99.90
12853;DHT22;6495;51.808;7.478;2024-01-15T00:04:11;2.00;99.90
12853;DHT22;6495;51.808;7.478;2024-01-15T00:06:41;1.90;99.90
12853;DHT22;6495;51.808;7.478;2024-01-15T00:09:10;2.00;99.90
12853;DHT22;6495;51.808;7.478;2024-01-15T00:11:38;2.00;99.90
12853;DHT22;6495;51.808;7.478;2024-01-15T00:14:06;1.90;99.90
12853;DHT22;6495;51.808;7.478;2024-01-15T00:16:35;1.90;99.90
12853;DHT22;6495;51.808;7.478;2024-01-15T00:19:03;1.90;99.90
12853;DHT22;6495;51.808;7.478;2024-01-15T00:21:32;2.00;99.90
12853;DHT22;6495;51.808;7.478;2024-01-15T00:24:02;1.90;99.90
12853;DHT22;6495;51.808;7.478;2024-01-15T00:26:30;2.00;99.90
12853;DHT22;6495;51.808;7.478;2024-01-15T00:28:59;2.00;99.90
12853;DHT22;6495;51.808;7.478;2024-01-15T00:31:27;2.00;99.90
12853;DHT22;6495;51.808;7.478;2024-01-15T00:33:56;2.00;99.90
12853;DHT22;6495;51.808;7.478;2024-01-15T00:36:25;2.00;99.90
12853;DHT22;6495;51.808;7.478;2024-01-15T00:38:54;2.00;99.90
12853;DHT22;6495;51.808;7.478;2024-01-15T00:41:24;2.00;99.90
12853;DHT22;6495;51.808;7.478;2024-01-15T00:43:54;2.00;99.90
12853;DHT22;6495;51.808;7.478;2024-01-15T00:46:23;2.00;99.90
12853;DHT22;6495;51.808;7.478;2024-01-15T00:48:51;2.00;99.90
12853;DHT22;6495;51.808;7.478;2024-01-15T00:51:19;2.00;99.90
12853;DHT22;6495;51.808;7.478;2024-01-15T00:53:48;2.00;99.90
12853;DHT22;6495;51.808;7.478;2024-01-15T00:56:16;2.00;99.90
12853;DHT22;6495;51.808;7.478;2024-01-15T00:58:46;2.00;99.90
12853;DHT22;6495;51.808;7.478;2024-01-15T01:01:14;2.10;99.90
12853;DHT22;6495;51.808;7.478;2024-01-15T01:03:43;2.00;99.90
12853;DHT22;6495;51.808;7.478;2024-01-15T01:06:11;2.10;99.90
12853;DHT22;6495;51.808;7.478;2024-01-15T01:08:40;2.00;99.90
12853;DHT22;6495;51.808;7.478;2024-01-15T01:11:12;2.10;99.90
12853;DHT22;6495;51.808;7.478;2024-01-15T01:13:41;2.10;99.90
12853;DHT22;6495;51.808;7.478;2024-01-15T01:16:11;2.10;99.90
12853;DHT22;6495;51.808;7.478;2024-01-15T01:18:39;2.10;99.90
12853;DHT22;6495;51.808;7.478;2024-01-15T01:21:08;2.10;99.90
12853;DHT22;6495;51.808;7.478;2024-01-15T01:23:36;2.10;99.90
12853;DHT22;6495;51.808;7.478;2024-01-15T01:26:05;2.10;99.90
12853;DHT22;6495;51.808;7.478;2024-01-15T01:28:33;2.10;99.90
12853;DHT22;6495;51.808;7.478;2024-01-15T01:31:01;2.10;99.90
12853;DHT22;6495;51.808;7.478;2024-01-15T01:33:31;2.10;99.90
12853;DHT22;6495;51.808;7.478;2024-01-15T01:36:00;2.10;99.90
12853;DHT22;6495;51.808;7.478;2024-01-15T01:38:28;2.10;99.90
12853;DHT22;6495;51.808;7.478;2024-01-15T01:40:56;2.10;99.90
12853;DHT22;6495;51.808;7.478;2024-01-15T01:43:25;2.10;99.90
12853;DHT22;6495;51.808;7.478;2024-01-15T01:45:55;2.10;99.90
12853;DHT22;6495;51.808;7.478;2024-01-15T01:48:26;2.10;99.90
12853;DHT22;6495;51.808;7.478;2024-01-15T01:50:57;2.10;99.90
12853;DHT22;6495;51.808;7.478;2024-01-15T01:53:28;2.10;99.90
12853;DHT22;6495;51.808;7.478;2024-01-15T01:55:57;2.20;99.90
12853;DHT22;6495;51.808;7.478;2024-01-15T01:58:26;2.10;99.90
12853;DHT22;6495;51.808;7.478;2024-01-15T02:00:55;2.20;99.90
12853;DHT22;6495;51.808;7.478;2024-01-15T02:03:24;2.10;99.90
12853;DHT22;6495;51.808;7.478;2024-01-15T02:05:56;2.20;99.90
12853;DHT22;6495;51.808;7.478;2024-01-15T02:08:25;2.10;99.90
12853;DHT22;6495;51.808;7.478;2024-01-15T02:10:54;2.20;99.90
12853;DHT22;6495;51.808;7.478;2024-01-15T02:13:22;2.10;99.90
12853;DHT22;6495;51.808;7.478;2024-01-15T02:15:51;2.10;99.90
12853;DHT22;6495;51.808;7.478;2024-01-15T02:18:20;2.20;99.90
12853;DHT22;6495;51.808;7.478;2024-01-15T02:20:48;2.20;99.90
12853;DHT22;6495;51.808;7.478;2024-01-15T02:23:18;2.20;99.90
12853;DHT22;6495;51.808;7.478;2024-01-15T02:25:47;2.10;99.90
12853;DHT22;6495;51.808;7.478;2024-01-15T02:28:17;2.20;99.90
12853;DHT22;6495;51.808;7.478;2024-01-15T02:30:45;2.10;99.90
12853;DHT22;6495;51.808;7.478;2024-01-15T02:33:14;2.10;99.90
12853;DHT22;6495;51.808;7.478;2024-01-15T02:35:42;2.10;99.90
12853;DHT22;6495;51.808;7.478;2024-01-15T02:38:13;2.10;99.90
12853;DHT22;6495;51.808;7.478;2024-01-15T02:40:44;2.10;99.90
12853;DHT22;6495;51.808;7.478;2024-01-15T02:43:13;2.10;99.90
12853;DHT22;6495;51.808;7.478;2024-01-15T02:45:41;2.10;99.90
12853;DHT22;6495;51.808;7.478;2024-01-15T02:48:09;2.10;99.90
12853;DHT22;6495;51.808;7.478;2024-01-15T02:50:38;2.10;99.90
12853;DHT22;6495;51.808;7.478;2024-01-15T02:53:05;2.10;99.90
12853;DHT22;6495;51.808;7.478;2024-01-15T02:55:34;2.00;99.90
12853;DHT22;6495;51.808;7.478;2024-01-15T02:58:04;2.00;99.90
12853;DHT22;6495;51.808;7.478;2024-01-15T03:00:32;2.00;99.90
12853;DHT22;6495;51.808;7.478;2024-01-15T03:03:00;2.10;99.90
12853;DHT22;6495;51.808;7.478;2024-01-15T03:05:29;2.00;99.90
12853;DHT22;6495;51.808;7.478;2024-01-15T03:07:57;2.00;99.90
12853;DHT22;6495;51.808;7.478;2024-01-15T03:10:26;2.00;99.90
12853;DHT22;6495;51.808;7.478;2024-01-15T03:12:54;2.00;99.90
12853;DHT22;6495;51.808;7.478;2024-01-15T03:15:24;2.00;99.90
12853;DHT22;6495;51.808;7.478;2024-01-15T03:17:52;2.00;99.90
12853;DHT22;6495;51.808;7.478;2024-01-15T03:20:21;2.00;99.90
12853;DHT22;6495;51.808;7.478;2024-01-15T03:22:49;2.00;99.90
12853;DHT22;6495;51.808;7.478;2024-01-15T03:25:17;2.00;99.90
12853;DHT22;6495;51.808;7.478;2024-01-15T03:27:46;1.90;99.90
12853;DHT22;6495;51.808;7.478;2024-01-15T03:30:14;1.90;99.90
12853;DHT22;6495;51.808;7.478;2024-01-15T03:32:44;1.90;99.90
12853;DHT22;6495;51.808;7.478;2024-01-15T03:35:14;1.90;99.90
12853;DHT22;6495;51.808;7.478;2024-01-15T03:37:42;1.90;99.90
12853;DHT22;6495;51.808;7.478;2024-01-15T03:40:11;1.90;99.90
12853;DHT22;6495;51.808;7.478;2024-01-15T03:42:40;1.90;99.90
12853;DHT22;6495;51.808;7.478;2024-01-15T03:45:09;1.90;99.90
12853;DHT22;6495;51.808;7.478;2024-01-15T03:47:37;1.90;99.90
12853;DHT22;6495;51.808;7.478;2024-01-15T03:50:09;1.90;99.90
12853;DHT22;6495;51.808;7.478;2024-01-15T03:52:37;1.80;99.90
12853;DHT22;6495;51.808;7.478;2024-01-15T03:55:06;1.90;99.90
12853;DHT22;6495;51.808;7.478;2024-01-15T03:57:35;1.90;99.90
12853;DHT22;6495;51.808;7.478;2024-01-15T04:00:05;1.80;99.90
12853;DHT22;6495;51.808;7.478;2024-01-15T04:02:35;1.80;99.90
12853;DHT22;6495;51.808;7.478;2024-01-15T04:05:03;1.80;99.90
12853;DHT22;6495;51.808;7.478;2024-01-15T04:07:34;1.80;99.90
12853;DHT22;6495;51.808;7.478;2024-01-15T04:10:02;1.80;99.90
12853;DHT22;6495;51.808;7.478;2024-01-15T04:12:31;1.80;99.90
12853;DHT22;6495;51.808;7.478;2024-01-15T04:14:59;1.80;99.90
12853;DHT22;6495;51.808;7.478;2024-01-15T04:17:27;1.80;99.90
12853;DHT22;6495;51.808;7.478;2024-01-15T04:19:56;1.80;99.90
12853;DHT22;6495;51.808;7.478;2024-01-15T04:22:25;1.80;99.90
12853;DHT22;6495;51.808;7.478;2024-01-15T04:24:55;1.80;99.90
12853;DHT22;6495;51.808;7.478;2024-01-15T04:27:23;1.80;99.90
12853;DHT22;6495;51.808;7.478;2024-01-15T04:29:51;1.80;99.90
12853;DHT22;6495;51.808;7.478;2024-01-15T04:32:20;1.80;99.90
12853;DHT22;6495;51.808;7.478;2024-01-15T04:34:49;1.80;99.90
12853;DHT22;6495;51.808;7.478;2024-01-15T04:37:17;1.80;99.90
12853;DHT22;6495;51.808;7.478;2024-01-15T04:39:46;1.80;99.90
12853;DHT22;6495;51.808;7.478;2024-01-15T04:42:16;1.80;99.90
12853;DHT22;6495;51.808;7.478;2024-01-15T04:44:44;1.80;99.90
12853;DHT22;6495;51.808;7.478;2024-01-15T04:47:13;1.80;99.90
12853;DHT22;6495;51.808;7.478;2024-01-15T04:49:41;1.80;99.90
12853;DHT22;6495;51.808;7.478;2024-01-15T04:52:09;1.80;99.90
12853;DHT22;6495;51.808;7.478;2024-01-15T04:54:38;1.80;99.90
12853;DHT22;6495;51.808;7.478;2024-01-15T04:57:06;1.80;99.90
12853;DHT22;6495;51.808;7.478;2024-01-15T04:59:36;1.80;99.90
12853;DHT22;6495;51.808;7.478;2024-01-15T05:02:04;1.80;99.90
12853;DHT22;6495;51.808;7.478;2024-01-15T05:04:32;1.80;99.90
12853;DHT22;6495;51.808;7.478;2024-01-15T05:07:01;1.80;99.90
12853;DHT22;6495;51.808;7.478;2024-01-15T05:09:30;1.80;99.90
12853;DHT22;6495;51.808;7.478;2024-01-15T05:11:59;1.80;99.90
12853;DHT22;6495;51.808;7.478;2024-01-15T05:14:27;1.80;99.90
12853;DHT22;6495;51.808;7.478;2024-01-15T05:16:58;1.90;99.90
12853;DHT22;6495;51.808;7.478;2024-01-15T05:19:26;1.80;99.90
12853;DHT22;6495;51.808;7.478;2024-01-15T05:21:58;1.80;99.90
12853;DHT22;6495;51.808;7.478;2024-01-15T05:24:26;1.90;99.90
12853;DHT22;6495;51.808;7.478;2024-01-15T05:26:55;1.80;99.90
12853;DHT22;6495;51.808;7.478;2024-01-15T05:29:23;1.80;99.90
12853;DHT22;6495;51.808;7.478;2024-01-15T05:31:51;1.80;99.90
12853;DHT22;6495;51.808;7.478;2024-01-15T05:34:21;1.80;99.90
12853;DHT22;6495;51.808;7.478;2024-01-15T05:36:49;1.80;99.90
12853;DHT22;6495;51.808;7.478;2024-01-15T05:39:18;1.80;99.90
12853;DHT22;6495;51.808;7.478;2024-01-15T05:41:49;1.80;99.90
12853;DHT22;6495;51.808;7.478;2024-01-15T05:44:18;1.80;99.90
12853;DHT22;6495;51.808;7.478;2024-01-15T05:46:46;1.80;99.90
12853;DHT22;6495;51.808;7.478;2024-01-15T05:49:14;1.80;99.90
12853;DHT22;6495;51.808;7.478;2024-01-15T05:51:44;1.80;99.90
12853;DHT22;6495;51.808;7.478;2024-01-15T05:54:13;1.80;99.90
12853;DHT22;6495;51.808;7.478;2024-01-15T05:56:41;1.90;99.90
12853;DHT22;6495;51.808;7.478;2024-01-15T05:59:09;1.90;99.90
12853;DHT22;6495;51.808;7.478;2024-01-15T06:01:41;1.90;99.90
12853;DHT22;6495;51.808;7.478;2024-01-15T06:04:10;1.90;99.90
12853;DHT22;6495;51.808;7.478;2024-01-15T06:06:39;1.90;99.90
12853;DHT22;6495;51.808;7.478;2024-01-15T06:09:08;1.90;99.90
12853;DHT22;6495;51.808;7.478;2024-01-15T06:11:37;1.90;99.90
12853;DHT22;6495;51.808;7.478;2024-01-15T06:14:05;1.90;99.90
12853;DHT22;6495;51.808;7.478;2024-01-15T06:16:33;1.90;99.90
12853;DHT22;6495;51.808;7.478;2024-01-15T06:19:01;1.90;99.90
12853;DHT22;6495;51.808;7.478;2024-01-15T06:21:30;1.90;99.90
12853;DHT22;6495;51.808;7.478;2024-01-15T06:23:59;1.90;99.90
12853;DHT22;6495;51.808;7.478;2024-01-15T06:26:28;1.90;99.90
12853;DHT22;6495;51.808;7.478;2024-01-15T06:28:57;1.90;99.90
12853;DHT22;6495;51.808;7.478;2024-01-15T06:31:25;1.90;99.90
12853;DHT22;6495;51.808;7.478;2024-01-15T06:33:54;1.90;99.90
12853;DHT22;6495;51.808;7.478;2024-01-15T06:36:23;1.90;99.90
12853;DHT22;6495;51.808;7.478;2024-01-15T06:38:51;1.90;99.90
12853;DHT22;6495;51.808;7.478;2024-01-15T06:41:20;1.90;99.90
12853;DHT22;6495;51.808;7.478;2024-01-15T06:43:49;1.90;99.90
12853;DHT22;6495;51.808;7.478;2024-01-15T06:46:20;1.90;99.90
12853;DHT22;6495;51.808;7.478;2024-01-15T06:48:49;1.90;99.90
12853;DHT22;6495;51.808;7.478;2024-01-15T06:51:17;1.90;99.90
12853;DHT22;6495;51.808;7.478;2024-01-15T06:53:46;1.90;99.90
12853;DHT22;6495;51.808;7.478;2024-01-15T06:56:14;1.90;99.90
12853;DHT22;6495;51.808;7.478;2024-01-15T06:58:42;1.90;99.90
12853;DHT22;6495;51.808;7.478;2024-01-15T07:01:12;1.90;99.90
12853;DHT22;6495;51.808;7.478;2024-01-15T07:03:41;1.90;99.90
12853;DHT22;6495;51.808;7.478;2024-01-15T07:06:10;1.90;99.90
12853;DHT22;6495;51.808;7.478;2024-01-15T07:08:39;1.90;99.90
12853;DHT22;6495;51.808;7.478;2024-01-15T07:11:08;1.90;99.90
12853;DHT22;6495;51.808;7.478;2024-01-15T07:13:37;1.90;99.90
12853;DHT22;6495;51.808;7.478;2024-01-15T07:16:06;1.90;99.90
12853;DHT22;6495;51.808;7.478;2024-01-15T07:18:36;1.90;99.90
12853;DHT22;6495;51.808;7.478;2024-01-15T07:21:05;1.90;99.90
12853;DHT22;6495;51.808;7.478;2024-01-15T07:23:33;1.90;99.90
12853;DHT22;6495;51.808;7.478;2024-01-15T07:26:01;1.90;99.90
12853;DHT22;6495;51.808;7.478;2024-01-15T07:28:31;1.90;99.90
12853;DHT22;6495;51.808;7.478;2024-01-15T07:30:59;1.90;99.90
12853;DHT22;6495;51.808;7.478;2024-01-15T07:33:29;1.90;99.90
12853;DHT22;6495;51.808;7.478;2024-01-15T07:35:59;1.90;99.90
12853;DHT22;6495;51.808;7.478;2024-01-15T07:38:29;1.90;99.90
12853;DHT22;6495;51.808;7.478;2024-01-15T07:40:58;1.90;99.90
12853;DHT22;6495;51.808;7.478;2024-01-15T07:43:26;1.90;99.90
12853;DHT22;6495;51.808;7.478;2024-01-15T07:45:55;1.90;99.90
12853;DHT22;6495;51.808;7.478;2024-01-15T07:48:24;1.90;99.90
12853;DHT22;6495;51.808;7.478;2024-01-15T07:50:52;1.90;99.90
12853;DHT22;6495;51.808;7.478;2024-01-15T07:53:22;1.90;99.90
12853;DHT22;6495;51.808;7.478;2024-01-15T07:55:50;1.90;99.90
12853;DHT22;6495;51.808;7.478;2024-01-15T07:58:19;1.90;99.90
12853;DHT22;6495;51.808;7.478;2024-01-15T08:00:47;1.90;99.90
12853;DHT22;6495;51.808;7.478;2024-01-15T08:03:15;1.90;99.90
12853;DHT22;6495;51.808;7.478;2024-01-15T08:05:44;1.90;99.90
12853;DHT22;6495;51.808;7.478;2024-01-15T08:08:13;1.90;99.90
12853;DHT22;6495;51.808;7.478;2024-01-15T08:10:43;1.90;99.90
12853;DHT22;6495;51.808;7.478;2024-01-15T08:13:11;1.90;99.90
12853;DHT22;6495;51.808;7.478;2024-01-15T08:15:40;1.90;99.90
12853;DHT22;6495;51.808;7.478;2024-01-15T08:18:09;1.90;99.90
12853;DHT22;6495;51.808;7.478;2024-01-15T08:20:38;1.90;99.90
12853;DHT22;6495;51.808;7.478;2024-01-15T08:23:06;1.80;99.90
12853;DHT22;6495;51.808;7.478;2024-01-15T08:25:34;1.90;99.90
12853;DHT22;6495;51.808;7.478;2024-01-15T08:28:04;1.80;99.90
12853;DHT22;6495;51.808;7.478;2024-01-15T08:30:33;1.90;99.90
12853;DHT22;6495;51.808;7.478;2024-01-15T08:33:01;1.90;99.90
12853;DHT22;6495;51.808;7.478;2024-01-15T08:35:40;1.90;99.90
12853;DHT22;6495;51.808;7.478;2024-01-15T08:38:08;1.90;99.90
12853;DHT22;6495;51.808;7.478;2024-01-15T08:40:36;1.90;99.90
12853;DHT22;6495;51.808;7.478;2024-01-15T08:43:06;1.90;99.90
12853;DHT22;6495;51.808;7.478;2024-01-15T08:45:34;1.90;99.90
12853;DHT22;6495;51.808;7.478;2024-01-15T08:48:03;1.90;99.90
12853;DHT22;6495;51.808;7.478;2024-01-15T08:50:32;1.90;99.90
12853;DHT22;6495;51.808;7.478;2024-01-15T08:53:01;1.90;99.90
12853;DHT22;6495;51.808;7.478;2024-01-15T08:55:29;1.90;99.90
12853;DHT22;6495;51.808;7.478;2024-01-15T08:57:58;1.90;99.90
12853;DHT22;6495;51.808;7.478;2024-01-15T09:00:28;1.90;99.90
12853;DHT22;6495;51.808;7.478;2024-01-15T09:02:59;1.90;99.90
12853;DHT22;6495;51.808;7.478;2024-01-15T09:05:28;1.90;99.90
12853;DHT22;6495;51.808;7.478;2024-01-15T09:07:57;1.90;99.90
12853;DHT22;6495;51.808;7.478;2024-01-15T09:10:25;1.90;99.90
12853;DHT22;6495;51.808;7.478;2024-01-15T09:12:54;1.90;99.90
12853;DHT22;6495;51.808;7.478;2024-01-15T09:15:23;1.90;99.90
12853;DHT22;6495;51.808;7.478;2024-01-15T09:17:53;1.90;99.90
12853;DHT22;6495;51.808;7.478;2024-01-15T09:20:21;1.90;99.90
12853;DHT22;6495;51.808;7.478;2024-01-15T09:22:50;1.90;99.90
12853;DHT22;6495;51.808;7.478;2024-01-15T09:25:19;2.00;99.90
12853;DHT22;6495;51.808;7.478;2024-01-15T09:27:47;2.00;99.90
12853;DHT22;6495;51.808;7.478;2024-01-15T09:30:16;2.00;99.90
12853;DHT22;6495;51.808;7.478;2024-01-15T09:32:45;2.00;99.90
12853;DHT22;6495;51.808;7.478;2024-01-15T09:35:15;2.00;99.90
12853;DHT22;6495;51.808;7.478;2024-01-15T09:37:43;2.00;99.90
12853;DHT22;6495;51.808;7.478;2024-01-15T09:40:14;2.00;99.90
12853;DHT22;6495;51.808;7.478;2024-01-15T09:42:44;2.00;99.90
12853;DHT22;6495;51.808;7.478;2024-01-15T09:45:14;2.00;99.90
12853;DHT22;6495;51.808;7.478;2024-01-15T09:47:44;2.00;99.90
12853;DHT22;6495;51.808;7.478;2024-01-15T09:50:14;2.00;99.90
12853;DHT22;6495;51.808;7.478;2024-01-15T09:52:44;2.00;99.90
12853;DHT22;6495;51.808;7.478;2024-01-15T09:55:13;2.00;99.90
12853;DHT22;6495;51.808;7.478;2024-01-15T09:57:44;2.10;99.90
12853;DHT22;6495;51.808;7.478;2024-01-15T10:00:14;2.10;99.90
12853;DHT22;6495;51.808;7.478;2024-01-15T10:02:46;2.10;99.90
12853;DHT22;6495;51.808;7.478;2024-01-15T10:05:16;2.10;99.90
12853;DHT22;6495;51.808;7.478;2024-01-15T10:08:15;2.10;99.90
12853;DHT22;6495;51.808;7.478;2024-01-15T10:10:44;2.10;99.90
12853;DHT22;6495;51.808;7.478;2024-01-15T10:13:13;2.10;99.90
12853;DHT22;6495;51.808;7.478;2024-01-15T10:15:45;2.10;99.90
12853;DHT22;6495;51.808;7.478;2024-01-15T10:18:15;2.10;99.90
12853;DHT22;6495;51.808;7.478;2024-01-15T10:20:45;2.10;99.90
12853;DHT22;6495;51.808;7.478;2024-01-15T10:23:14;2.10;99.90
12853;DHT22;6495;51.808;7.478;2024-01-15T10:25:43;2.10;99.90
12853;DHT22;6495;51.808;7.478;2024-01-15T10:28:13;2.10;99.90
12853;DHT22;6495;51.808;7.478;2024-01-15T10:30:42;2.10;99.90
12853;DHT22;6495;51.808;7.478;2024-01-15T10:33:11;2.10;99.90
12853;DHT22;6495;51.808;7.478;2024-01-15T10:35:41;2.20;99.90
12853;DHT22;6495;51.808;7.478;2024-01-15T10:38:10;2.20;99.90
12853;DHT22;6495;51.808;7.478;2024-01-15T10:40:39;2.30;99.90
12853;DHT22;6495;51.808;7.478;2024-01-15T10:43:09;2.30;99.90
12853;DHT22;6495;51.808;7.478;2024-01-15T10:45:38;2.30;99.90
12853;DHT22;6495;51.808;7.478;2024-01-15T10:48:07;2.40;99.90
12853;DHT22;6495;51.808;7.478;2024-01-15T10:50:36;2.40;99.90
12853;DHT22;6495;51.808;7.478;2024-01-15T10:53:05;2.40;99.90
12853;DHT22;6495;51.808;7.478;2024-01-15T10:55:36;2.40;99.90
12853;DHT22;6495;51.808;7.478;2024-01-15T10:58:07;2.40;99.90
12853;DHT22;6495;51.808;7.478;2024-01-15T11:00:38;2.40;99.90
12853;DHT22;6495;51.808;7.478;2024-01-15T11:03:07;2.40;99.90
12853;DHT22;6495;51.808;7.478;2024-01-15T11:05:37;2.40;99.90
12853;DHT22;6495;51.808;7.478;2024-01-15T11:08:06;2.50;99.90
12853;DHT22;6495;51.808;7.478;2024-01-15T11:10:41;2.50;99.90
12853;DHT22;6495;51.808;7.478;2024-01-15T11:13:19;2.50;99.90
12853;DHT22;6495;51.808;7.478;2024-01-15T11:16:00;2.50;99.90
12853;DHT22;6495;51.808;7.478;2024-01-15T11:18:31;2.50;99.90
12853;DHT22;6495;51.808;7.478;2024-01-15T11:21:22;2.50;99.90
12853;DHT22;6495;51.808;7.478;2024-01-15T11:23:54;2.50;99.90
12853;DHT22;6495;51.808;7.478;2024-01-15T11:26:35;2.50;99.90
12853;DHT22;6495;51.808;7.478;2024-01-15T11:29:07;2.60;99.90
12853;DHT22;6495;51.808;7.478;2024-01-15T11:31:58;2.60;99.90
12853;DHT22;6495;51.808;7.478;2024-01-15T11:34:54;2.60;99.90
12853;DHT22;6495;51.808;7.478;2024-01-15T11:37:58;2.60;99.90
12853;DHT22;6495;51.808;7.478;2024-01-15T11:40:38;2.60;99.90
12853;DHT22;6495;51.808;7.478;2024-01-15T11:43:11;2.60;99.90
12853;DHT22;6495;51.808;7.478;2024-01-15T11:45:44;2.60;99.90
12853;DHT22;6495;51.808;7.478;2024-01-15T11:48:15;2.60;99.90
12853;DHT22;6495;51.808;7.478;2024-01-15T11:50:46;2.60;99.90
12853;DHT22;6495;51.808;7.478;2024-01-15T11:53:21;2.60;99.90
12853;DHT22;6495;51.808;7.478;2024-01-15T11:55:58;2.60;99.90
12853;DHT22;6495;51.808;7.478;2024-01-15T11:58:31;2.60;99.90
12853;DHT22;6495;51.808;7.478;2024-01-15T12:01:18;2.60;99.90
12853;DHT22;6495;51.808;7.478;2024-01-15T12:03:49;2.60;99.90
12853;DHT22;6495;51.808;7.478;2024-01-15T12:06:20;2.60;99.90
12853;DHT22;6495;51.808;7.478;2024-01-15T12:08:50;2.60;99.90
12853;DHT22;6495;51.808;7.478;2024-01-15T12:11:25;2.60;99.90
12853;DHT22;6495;51.808;7.478;2024-01-15T12:13:58;2.60;99.90
12853;DHT22;6495;51.808;7.478;2024-01-15T12:16:30;2.60;99.90
12853;DHT22;6495;51.808;7.478;2024-01-15T12:19:00;2.60;99.90
12853;DHT22;6495;51.808;7.478;2024-01-15T12:21:34;2.60;99.90
12853;DHT22;6495;51.808;7.478;2024-01-15T12:24:13;2.60;99.90
12853;DHT22;6495;51.808;7.478;2024-01-15T12:26:53;2.60;99.90
12853;DHT22;6495;51.808;7.478;2024-01-15T12:29:35;2.60;99.90
12853;DHT22;6495;51.808;7.478;2024-01-15T12:32:08;2.70;99.90
12853;DHT22;6495;51.808;7.478;2024-01-15T12:34:38;2.60;99.90
12853;DHT22;6495;51.808;7.478;2024-01-15T12:37:11;2.60;99.90
12853;DHT22;6495;51.808;7.478;2024-01-15T12:39:44;2.60;99.90
12853;DHT22;6495;51.808;7.478;2024-01-15T12:42:14;2.60;99.90
12853;DHT22;6495;51.808;7.478;2024-01-15T12:44:48;2.60;99.90
12853;DHT22;6495;51.808;7.478;2024-01-15T12:47:21;2.70;99.90
12853;DHT22;6495;51.808;7.478;2024-01-15T12:49:51;2.70;99.90
12853;DHT22;6495;51.808;7.478;2024-01-15T12:52:47;2.70;99.90
12853;DHT22;6495;51.808;7.478;2024-01-15T12:55:27;2.70;99.90
12853;DHT22;6495;51.808;7.478;2024-01-15T12:57:59;2.70;99.90
12853;DHT22;6495;51.808;7.478;2024-01-15T13:00:29;2.70;99.90
12853;DHT22;6495;51.808;7.478;2024-01-15T13:03:08;2.80;99.90
12853;DHT22;6495;51.808;7.478;2024-01-15T13:05:47;2.80;99.90
12853;DHT22;6495;51.808;7.478;2024-01-15T13:08:20;2.80;99.90
12853;DHT22;6495;51.808;7.478;2024-01-15T13:10:54;2.80;99.90
12853;DHT22;6495;51.808;7.478;2024-01-15T13:13:27;2.80;99.90
12853;DHT22;6495;51.808;7.478;2024-01-15T13:16:03;2.80;99.90
12853;DHT22;6495;51.808;7.478;2024-01-15T13:18:37;2.80;99.90
12853;DHT22;6495;51.808;7.478;2024-01-15T13:21:12;2.80;99.90
12853;DHT22;6495;51.808;7.478;2024-01-15T13:23:41;2.80;99.90
12853;DHT22;6495;51.808;7.478;2024-01-15T13:26:11;2.80;99.90
12853;DHT22;6495;51.808;7.478;2024-01-15T13:28:46;2.80;99.90
12853;DHT22;6495;51.808;7.478;2024-01-15T13:31:21;2.80;99.90
12853;DHT22;6495;51.808;7.478;2024-01-15T13:33:50;2.80;99.90
12853;DHT22;6495;51.808;7.478;2024-01-15T13:36:26;2.80;99.90
12853;DHT22;6495;51.808;7.478;2024-01-15T13:38:55;2.80;99.90
12853;DHT22;6495;51.808;7.478;2024-01-15T13:41:30;2.80;99.90
12853;DHT22;6495;51.808;7.478;2024-01-15T13:44:07;2.80;99.90
12853;DHT22;6495;51.808;7.478;2024-01-15T13:46:45;2.80;99.90
12853;DHT22;6495;51.808;7.478;2024-01-15T13:49:14;2.80;99.90
12853;DHT22;6495;51.808;7.478;2024-01-15T13:51:47;2.80;99.90
12853;DHT22;6495;51.808;7.478;2024-01-15T13:54:17;2.80;99.90
12853;DHT22;6495;51.808;7.478;2024-01-15T13:56:56;2.80;99.90
12853;DHT22;6495;51.808;7.478;2024-01-15T13:59:25;2.80;99.90
12853;DHT22;6495;51.808;7.478;2024-01-15T14:01:56;2.80;99.90
12853;DHT22;6495;51.808;7.478;2024-01-15T14:04:24;2.80;99.90
12853;DHT22;6495;51.808;7.478;2024-01-15T14:06:56;2.80;99.90
12853;DHT22;6495;51.808;7.478;2024-01-15T14:09:24;2.80;99.90
12853;DHT22;6495;51.808;7.478;2024-01-15T14:11:53;2.80;99.90
12853;DHT22;6495;51.808;7.478;2024-01-15T14:14:24;2.80;99.90
12853;DHT22;6495;51.808;7.478;2024-01-15T14:16:53;2.80;99.90
12853;DHT22;6495;51.808;7.478;2024-01-15T14:19:27;2.80;99.90
12853;DHT22;6495;51.808;7.478;2024-01-15T14:22:00;2.80;99.90
12853;DHT22;6495;51.808;7.478;2024-01-15T14:24:29;2.80;99.90
12853;DHT22;6495;51.808;7.478;2024-01-15T14:26:57;2.80;99.90
12853;DHT22;6495;51.808;7.478;2024-01-15T14:29:30;2.80;99.90
12853;DHT22;6495;51.808;7.478;2024-01-15T14:31:59;2.70;99.90
12853;DHT22;6495;51.808;7.478;2024-01-15T14:34:30;2.80;99.90
12853;DHT22;6495;51.808;7.478;2024-01-15T14:36:59;2.80;99.90
12853;DHT22;6495;51.808;7.478;2024-01-15T14:39:29;2.80;99.90
12853;DHT22;6495;51.808;7.478;2024-01-15T14:42:01;2.80;99.90
12853;DHT22;6495;51.808;7.478;2024-01-15T14:44:29;2.80;99.90
12853;DHT22;6495;51.808;7.478;2024-01-15T14:47:02;2.80;99.90
12853;DHT22;6495;51.808;7.478;2024-01-15T14:49:37;2.70;99.90
12853;DHT22;6495;51.808;7.478;2024-01-15T14:52:09;2.70;99.90
12853;DHT22;6495;51.808;7.478;2024-01-15T14:54:37;2.70;99.90
12853;DHT22;6495;51.808;7.478;2024-01-15T14:57:06;2.70;99.90
12853;DHT22;6495;51.808;7.478;2024-01-15T14:59:34;2.70;99.90
12853;DHT22;6495;51.808;7.478;2024-01-15T15:02:03;2.70;99.90
12853;DHT22;6495;51.808;7.478;2024-01-15T15:04:31;2.70;99.90
12853;DHT22;6495;51.808;7.478;2024-01-15T15:07:01;2.70;99.90
12853;DHT22;6495;51.808;7.478;2024-01-15T15:09:29;2.60;99.90
12853;DHT22;6495;51.808;7.478;2024-01-15T15:11:58;2.60;99.90
12853;DHT22;6495;51.808;7.478;2024-01-15T15:14:26;2.60;99.90
12853;DHT22;6495;51.808;7.478;2024-01-15T15:16:55;2.60;99.90
12853;DHT22;6495;51.808;7.478;2024-01-15T15:19:23;2.60;99.90
12853;DHT22;6495;51.808;7.478;2024-01-15T15:21:51;2.60;99.90
12853;DHT22;6495;51.808;7.478;2024-01-15T15:24:21;2.60;99.90
12853;DHT22;6495;51.808;7.478;2024-01-15T15:26:49;2.60;99.90
12853;DHT22;6495;51.808;7.478;2024-01-15T15:29:21;2.50;99.90
12853;DHT22;6495;51.808;7.478;2024-01-15T15:31:51;2.50;99.90
12853;DHT22;6495;51.808;7.478;2024-01-15T15:34:19;2.50;99.90
12853;DHT22;6495;51.808;7.478;2024-01-15T15:36:48;2.50;99.90
12853;DHT22;6495;51.808;7.478;2024-01-15T15:39:17;2.50;99.90
12853;DHT22;6495;51.808;7.478;2024-01-15T15:41:46;2.40;99.90
12853;DHT22;6495;51.808;7.478;2024-01-15T15:44:15;2.40;99.90
12853;DHT22;6495;51.808;7.478;2024-01-15T15:46:44;2.40;99.90
12853;DHT22;6495;51.808;7.478;2024-01-15T15:49:12;2.40;99.90
12853;DHT22;6495;51.808;7.478;2024-01-15T15:51:41;2.30;99.90
12853;DHT22;6495;51.808;7.478;2024-01-15T15:54:10;2.30;99.90
12853;DHT22;6495;51.808;7.478;2024-01-15T15:56:39;2.30;99.90
12853;DHT22;6495;51.808;7.478;2024-01-15T15:59:10;2.30;99.90
12853;DHT22;6495;51.808;7.478;2024-01-15T16:01:40;2.30;99.90
12853;DHT22;6495;51.808;7.478;2024-01-15T16:04:08;2.20;99.90
12853;DHT22;6495;51.808;7.478;2024-01-15T16:06:37;2.20;99.90
12853;DHT22;6495;51.808;7.478;2024-01-15T16:09:06;2.20;99.90
12853;DHT22;6495;51.808;7.478;2024-01-15T16:11:37;2.20;99.90
12853;DHT22;6495;51.808;7.478;2024-01-15T16:14:06;2.20;99.90
12853;DHT22;6495;51.808;7.478;2024-01-15T16:16:35;2.20;99.90
12853;DHT22;6495;51.808;7.478;2024-01-15T16:19:24;2.20;99.90
12853;DHT22;6495;51.808;7.478;2024-01-15T16:22:13;2.20;99.90